Time;durP1;ratioP1;P1;durP2;ratioP2;P2;SDS_P1;SDS_P2;PMS_P1;PMS_P2;Temp;Humidity;BMP_temperature;BMP_pressure;BME280_temperature;BME280_humidity;BME280_pressure;Samples;Min_cycle;Max_cycle;Signal;HPM_P1;HPM_P2
2022/11/19 00:00:49;;;;;;;18.05;5.22;;;;;;;;;;4982935;28;20030;-62
2022/11/19 00:03:16;;;;;;;13.70;5.43;;;;;;;;;;4981730;28;20034;-62
2022/11/19 00:05:44;;;;;;;12.15;4.22;;;;;;;;;;4975760;28;20031;-62
2022/11/19 00:08:10;;;;;;;6.63;2.83;;;;;;;;;;4986286;28;20030;-62
2022/11/19 00:10:37;;;;;;;10.70;2.63;;;;;;;;;;4976581;28;20071;-62
2022/11/19 00:13:04;;;;;;;13.23;3.85;;;;;;;;;;4980926;28;20106;-62
2022/11/19 00:15:30;;;;;;;11.05;2.65;;;;;;;;;;4983633;28;20031;-62
2022/11/19 00:17:57;;;;;;;13.45;3.08;;;;;;;;;;4980445;28;20035;-62
2022/11/19 00:20:23;;;;;;;9.00;2.67;;;;;;;;;;4974522;28;20018;-62
2022/11/19 00:22:51;;;;;;;9.23;3.45;;;;;;;;;;4982629;28;20088;-62
2022/11/19 00:25:17;;;;;;;12.45;4.20;;;;;;;;;;4981507;28;20087;-62
2022/11/19 00:27:43;;;;;;;7.43;2.80;;;;;;;;;;4975857;28;20030;-62
2022/11/19 00:30:09;;;;;;;7.65;3.63;;;;;;;;;;4986346;28;20034;-62
2022/11/19 00:32:35;;;;;;;9.30;3.83;;;;;;;;;;4975843;28;20600;-62
2022/11/19 00:35:01;;;;;;;5.63;3.22;;;;;;;;;;4981206;28;20023;-62
2022/11/19 00:37:28;;;;;;;8.60;3.17;;;;;;;;;;4982260;28;20372;-62
2022/11/19 00:39:54;;;;;;;15.52;3.28;;;;;;;;;;4974552;28;20037;-62
2022/11/19 00:42:20;;;;;;;7.78;3.28;;;;;;;;;;4986259;28;20546;-62
2022/11/19 00:44:46;;;;;;;4.63;2.65;;;;;;;;;;4976726;28;20032;-62
2022/11/19 00:47:12;;;;;;;8.35;2.78;;;;;;;;;;4979901;28;20477;-62
2022/11/19 00:49:38;;;;;;;10.27;3.50;;;;;;;;;;4983717;28;20031;-63
2022/11/19 00:52:05;;;;;;;7.55;3.38;;;;;;;;;;4973020;28;20046;-63
2022/11/19 00:54:31;;;;;;;5.07;2.63;;;;;;;;;;4985761;28;20489;-62
2022/11/19 00:56:57;;;;;;;10.15;3.72;;;;;;;;;;4978032;28;20034;-63
2022/11/19 00:59:23;;;;;;;7.80;3.13;;;;;;;;;;4978336;28;20031;-63
2022/11/19 01:01:49;;;;;;;6.90;2.45;;;;;;;;;;4984842;28;20073;-63
2022/11/19 01:04:15;;;;;;;8.25;1.73;;;;;;;;;;4976497;28;20053;-63
2022/11/19 01:06:42;;;;;;;7.43;1.75;;;;;;;;;;4987694;28;20487;-62
2022/11/19 01:09:08;;;;;;;7.03;1.60;;;;;;;;;;4982130;28;20411;-62
2022/11/19 01:11:35;;;;;;;3.72;1.90;;;;;;;;;;4980786;28;20381;-62
2022/11/19 01:14:02;;;;;;;7.63;2.25;;;;;;;;;;4989377;28;20029;-63
2022/11/19 01:16:40;;;;;;;5.43;2.17;;;;;;;;;;4989526;28;20015;-63
2022/11/19 01:19:07;;;;;;;7.68;1.95;;;;;;;;;;4989191;28;20095;-63
2022/11/19 01:21:34;;;;;;;8.43;1.55;;;;;;;;;;4980465;28;20100;-63
2022/11/19 01:24:01;;;;;;;4.57;1.67;;;;;;;;;;4989062;28;20129;-63
2022/11/19 01:26:27;;;;;;;7.03;1.90;;;;;;;;;;4976531;28;20058;-63
2022/11/19 01:28:54;;;;;;;9.73;2.92;;;;;;;;;;4986217;28;20037;-63
2022/11/19 01:31:21;;;;;;;10.25;3.33;;;;;;;;;;4982759;28;20023;-63
2022/11/19 01:33:48;;;;;;;15.77;2.75;;;;;;;;;;4992140;28;20114;-63
2022/11/19 01:36:15;;;;;;;5.93;2.45;;;;;;;;;;4992130;28;20018;-63
2022/11/19 01:38:42;;;;;;;5.85;2.53;;;;;;;;;;4992540;28;20121;-63
2022/11/19 01:41:09;;;;;;;7.95;3.63;;;;;;;;;;4976250;28;20030;-64
2022/11/19 01:43:44;;;;;;;8.57;2.72;;;;;;;;;;4988772;28;20035;-63
2022/11/19 01:46:11;;;;;;;9.35;2.92;;;;;;;;;;4981534;28;20026;-63
2022/11/19 01:48:40;;;;;;;8.60;2.70;;;;;;;;;;4980155;28;20097;-63
2022/11/19 01:51:14;;;;;;;8.82;3.03;;;;;;;;;;4988707;28;20031;-62
2022/11/19 01:53:42;;;;;;;5.82;2.90;;;;;;;;;;4977217;28;20526;-62
2022/11/19 01:56:08;;;;;;;9.00;2.78;;;;;;;;;;4984294;28;20018;-62
2022/11/19 01:58:37;;;;;;;6.43;2.85;;;;;;;;;;4984353;28;20498;-62
2022/11/19 02:01:04;;;;;;;10.30;2.90;;;;;;;;;;4977208;28;20030;-62
2022/11/19 02:03:31;;;;;;;6.07;2.88;;;;;;;;;;4988075;28;20038;-62
2022/11/19 02:05:58;;;;;;;4.20;2.38;;;;;;;;;;4979221;28;20392;-62
2022/11/19 02:08:36;;;;;;;6.43;1.92;;;;;;;;;;4981944;28;20121;-62
2022/11/19 02:11:21;;;;;;;7.32;2.28;;;;;;;;;;4987774;28;20083;-62
2022/11/19 02:13:59;;;;;;;5.90;2.38;;;;;;;;;;4976887;28;20030;-62
2022/11/19 02:16:28;;;;;;;7.60;2.35;;;;;;;;;;4981871;28;20035;-62
2022/11/19 02:19:00;;;;;;;4.78;1.77;;;;;;;;;;4986715;28;20034;-62
2022/11/19 02:21:38;;;;;;;4.43;2.20;;;;;;;;;;4975652;28;20113;-62
2022/11/19 02:24:04;;;;;;;4.50;2.03;;;;;;;;;;4985145;28;20118;-62
2022/11/19 02:26:30;;;;;;;7.20;2.90;;;;;;;;;;4982814;28;20127;-62
2022/11/19 02:29:03;;;;;;;5.80;2.28;;;;;;;;;;4978026;28;20125;-62
2022/11/19 02:31:29;;;;;;;;;;;;;;;;;;4988644;28;20044;-62
2022/11/19 02:34:11;;;;;;;7.40;2.35;;;;;;;;;;4977862;28;19906;-62
2022/11/19 02:36:40;;;;;;;5.40;2.25;;;;;;;;;;4980653;28;20393;-62
2022/11/19 02:39:13;;;;;;;4.32;2.38;;;;;;;;;;4987312;28;20027;-62
2022/11/19 02:41:51;;;;;;;5.80;2.30;;;;;;;;;;4991133;28;20026;-62
2022/11/19 02:47:07;;;;;;;5.25;2.20;;;;;;;;;;4986265;28;20042;-62
2022/11/19 02:49:35;;;;;;;6.70;2.05;;;;;;;;;;4974871;28;20042;-62
2022/11/19 02:52:03;;;;;;;6.97;2.15;;;;;;;;;;4985526;28;20023;-62
2022/11/19 02:54:29;;;;;;;8.57;2.13;;;;;;;;;;4981572;28;20034;-62
2022/11/19 02:56:59;;;;;;;7.30;2.42;;;;;;;;;;4978404;28;20114;-62
2022/11/19 03:04:56;;;;;;;5.97;1.85;;;;;;;;;;4977898;28;20051;-62
2022/11/19 03:07:22;;;;;;;9.05;2.28;;;;;;;;;;4987776;28;20034;-62
2022/11/19 03:09:52;;;;;;;8.50;2.53;;;;;;;;;;4975900;28;20031;-62
2022/11/19 03:12:22;;;;;;;4.93;1.95;;;;;;;;;;4983163;28;20121;-62
2022/11/19 03:17:53;;;;;;;3.35;1.70;;;;;;;;;;4976031;28;20431;-62
2022/11/19 03:20:32;;;;;;;5.65;2.30;;;;;;;;;;4983007;28;20435;-62
2022/11/19 03:23:03;;;;;;;5.78;2.35;;;;;;;;;;4984907;28;20046;-62
2022/11/19 03:25:34;;;;;;;4.85;2.08;;;;;;;;;;4976831;28;20033;-62
2022/11/19 03:28:03;;;;;;;4.95;2.20;;;;;;;;;;4981314;28;20039;-62
2022/11/19 03:30:30;;;;;;;7.22;2.50;;;;;;;;;;4983692;28;20483;-62
2022/11/19 03:33:06;;;;;;;5.35;2.40;;;;;;;;;;4978970;28;20073;-62
2022/11/19 03:35:34;;;;;;;3.85;2.15;;;;;;;;;;4979955;28;20065;-62
2022/11/19 03:38:02;;;;;;;7.80;2.15;;;;;;;;;;4981409;28;20026;-62
2022/11/19 03:40:30;;;;;;;8.85;2.28;;;;;;;;;;4981845;28;20035;-62
2022/11/19 03:42:57;;;;;;;8.48;2.35;;;;;;;;;;4981254;28;20025;-62
2022/11/19 03:45:28;;;;;;;9.70;2.80;;;;;;;;;;4984787;28;20393;-62
2022/11/19 03:47:54;;;;;;;5.05;2.83;;;;;;;;;;4986124;28;20027;-62
2022/11/19 03:50:23;;;;;;;6.28;2.70;;;;;;;;;;4988353;28;20022;-62
2022/11/19 03:52:49;;;;;;;8.57;2.90;;;;;;;;;;4988242;28;20076;-62
2022/11/19 03:55:16;;;;;;;11.82;3.08;;;;;;;;;;4988341;28;20061;-62
2022/11/19 03:57:42;;;;;;;7.00;2.58;;;;;;;;;;4985128;28;20384;-62
2022/11/19 04:00:09;;;;;;;8.88;2.60;;;;;;;;;;4980476;28;20063;-63
2022/11/19 04:02:41;;;;;;;4.40;2.25;;;;;;;;;;4985373;28;20050;-62
2022/11/19 04:05:08;;;;;;;5.63;2.35;;;;;;;;;;4985329;28;20046;-62
2022/11/19 04:07:34;;;;;;;6.63;2.53;;;;;;;;;;4984705;28;20038;-62
2022/11/19 04:10:00;;;;;;;4.05;2.10;;;;;;;;;;4983228;28;20117;-62
2022/11/19 04:12:26;;;;;;;8.18;2.30;;;;;;;;;;4984988;28;20499;-62
2022/11/19 04:14:52;;;;;;;4.75;2.00;;;;;;;;;;4985041;28;20027;-62
2022/11/19 04:17:19;;;;;;;3.15;1.80;;;;;;;;;;4985403;28;20030;-62
2022/11/19 04:19:45;;;;;;;7.90;2.53;;;;;;;;;;4983257;28;20038;-62
2022/11/19 04:22:11;;;;;;;5.65;3.25;;;;;;;;;;4986031;28;20030;-62
2022/11/19 04:24:37;;;;;;;12.60;4.68;;;;;;;;;;4985838;28;20026;-62
2022/11/19 04:27:03;;;;;;;3.50;2.63;;;;;;;;;;4986123;28;20095;-62
2022/11/19 04:29:29;;;;;;;3.72;1.98;;;;;;;;;;4982468;28;20041;-62
2022/11/19 04:31:55;;;;;;;4.40;1.95;;;;;;;;;;4983087;28;20589;-62
2022/11/19 04:34:22;;;;;;;5.78;2.03;;;;;;;;;;4985942;28;20034;-62
2022/11/19 04:36:48;;;;;;;3.70;2.03;;;;;;;;;;4985195;28;20106;-62
2022/11/19 04:39:14;;;;;;;4.55;2.53;;;;;;;;;;4986054;28;20034;-62
2022/11/19 04:41:40;;;;;;;4.00;1.65;;;;;;;;;;4984077;28;20023;-62
2022/11/19 04:44:06;;;;;;;7.57;2.03;;;;;;;;;;4985145;28;20038;-62
2022/11/19 04:46:32;;;;;;;6.55;1.92;;;;;;;;;;4981448;28;20121;-62
2022/11/19 04:48:58;;;;;;;3.40;2.03;;;;;;;;;;4980475;28;20073;-62
2022/11/19 04:51:24;;;;;;;4.47;1.80;;;;;;;;;;4973795;28;20588;-62
2022/11/19 04:53:51;;;;;;;7.13;1.85;;;;;;;;;;4986100;28;20042;-62
2022/11/19 04:56:17;;;;;;;5.20;1.80;;;;;;;;;;4976124;28;20504;-62
2022/11/19 04:58:43;;;;;;;2.53;1.85;;;;;;;;;;4979751;28;20042;-62
2022/11/19 05:01:09;;;;;;;7.10;2.20;;;;;;;;;;4983246;28;20081;-62
2022/11/19 05:03:35;;;;;;;4.07;2.10;;;;;;;;;;4973058;28;20054;-62
2022/11/19 05:06:01;;;;;;;4.63;1.92;;;;;;;;;;4985785;28;20396;-62
2022/11/19 05:08:27;;;;;;;2.20;1.77;;;;;;;;;;4977404;28;20030;-62
2022/11/19 05:10:53;;;;;;;2.75;1.60;;;;;;;;;;4978703;28;20027;-62
2022/11/19 05:13:19;;;;;;;3.50;1.63;;;;;;;;;;4983977;28;20026;-62
2022/11/19 05:15:45;;;;;;;6.70;1.80;;;;;;;;;;4972886;28;20038;-62
2022/11/19 05:18:12;;;;;;;2.95;1.50;;;;;;;;;;4989304;28;20031;-61
2022/11/19 05:20:38;;;;;;;4.80;1.60;;;;;;;;;;4980925;28;20110;-62
2022/11/19 05:23:04;;;;;;;5.57;1.85;;;;;;;;;;4982067;28;20455;-62
2022/11/19 05:25:30;;;;;;;2.95;1.80;;;;;;;;;;4972841;28;20053;-62
2022/11/19 05:27:57;;;;;;;2.90;1.80;;;;;;;;;;4985319;28;20035;-62
2022/11/19 05:30:23;;;;;;;4.80;1.88;;;;;;;;;;4976234;28;20378;-62
2022/11/19 05:32:49;;;;;;;1.77;1.67;;;;;;;;;;4982868;28;20105;-62
2022/11/19 05:35:15;;;;;;;4.32;2.13;;;;;;;;;;4983577;28;20499;-61
2022/11/19 05:37:41;;;;;;;3.30;1.58;;;;;;;;;;4988428;28;20038;-62
2022/11/19 05:40:07;;;;;;;2.95;1.48;;;;;;;;;;4989230;28;20049;-61
2022/11/19 05:42:33;;;;;;;5.53;2.10;;;;;;;;;;4988993;28;20027;-62
2022/11/19 05:45:00;;;;;;;3.75;2.00;;;;;;;;;;4988898;28;20117;-62
2022/11/19 05:47:26;;;;;;;4.93;2.03;;;;;;;;;;4989097;28;20518;-62
2022/11/19 05:49:52;;;;;;;4.38;2.00;;;;;;;;;;4989850;28;20083;-62
2022/11/19 05:52:18;;;;;;;2.58;1.90;;;;;;;;;;4992310;28;20019;-62
2022/11/19 05:54:44;;;;;;;4.78;2.22;;;;;;;;;;4992200;28;20421;-62
2022/11/19 05:57:10;;;;;;;3.45;2.22;;;;;;;;;;4989867;28;20034;-61
2022/11/19 05:59:37;;;;;;;5.45;2.25;;;;;;;;;;4987709;28;20404;-62
2022/11/19 06:02:04;;;;;;;4.85;2.25;;;;;;;;;;4982054;28;20027;-61
2022/11/19 06:04:30;;;;;;;11.85;4.43;;;;;;;;;;4981708;28;20508;-62
2022/11/19 06:06:56;;;;;;;15.82;4.97;;;;;;;;;;4980876;28;20041;-62
2022/11/19 06:09:22;;;;;;;16.27;5.28;;;;;;;;;;4980980;28;20027;-62
2022/11/19 06:11:51;;;;;;;28.83;8.88;;;;;;;;;;4983009;28;20072;-62
2022/11/19 06:14:20;;;;;;;17.38;5.80;;;;;;;;;;4981919;28;20481;-62
2022/11/19 06:16:47;;;;;;;13.38;5.38;;;;;;;;;;4980504;28;20507;-61
2022/11/19 06:19:13;;;;;;;16.77;5.82;;;;;;;;;;4986399;28;20065;-62
2022/11/19 06:21:39;;;;;;;17.48;6.10;;;;;;;;;;4985899;28;20026;-62
2022/11/19 06:24:05;;;;;;;10.48;5.10;;;;;;;;;;4983561;28;20042;-62
2022/11/19 06:26:32;;;;;;;10.05;4.03;;;;;;;;;;4987683;28;20058;-62
2022/11/19 06:28:58;;;;;;;5.57;2.90;;;;;;;;;;4984614;28;20430;-62
2022/11/19 06:31:24;;;;;;;7.05;2.65;;;;;;;;;;4986129;28;20027;-62
2022/11/19 06:33:52;;;;;;;6.47;2.40;;;;;;;;;;4985465;28;20075;-62
2022/11/19 06:36:18;;;;;;;7.60;2.08;;;;;;;;;;4980619;28;20083;-62
2022/11/19 06:38:45;;;;;;;3.20;2.03;;;;;;;;;;4986087;28;20109;-62
2022/11/19 06:41:11;;;;;;;10.18;2.80;;;;;;;;;;4989665;28;20038;-62
2022/11/19 06:43:37;;;;;;;5.93;2.67;;;;;;;;;;4989172;28;20037;-62
2022/11/19 06:46:03;;;;;;;7.78;3.08;;;;;;;;;;4986105;28;20126;-62
2022/11/19 06:48:29;;;;;;;4.28;2.53;;;;;;;;;;4992631;28;20026;-62
2022/11/19 06:50:56;;;;;;;5.05;2.33;;;;;;;;;;4998397;28;20411;-62
2022/11/19 06:53:22;;;;;;;6.85;2.80;;;;;;;;;;4983341;28;20136;-62
2022/11/19 06:55:54;;;;;;;7.97;2.63;;;;;;;;;;4986489;28;20038;-61
2022/11/19 06:58:20;;;;;;;5.63;2.33;;;;;;;;;;4989226;28;20049;-62
2022/11/19 07:00:46;;;;;;;3.67;1.92;;;;;;;;;;4985016;28;20034;-61
2022/11/19 07:03:12;;;;;;;4.47;2.25;;;;;;;;;;4986598;28;20046;-61
2022/11/19 07:05:39;;;;;;;3.03;2.28;;;;;;;;;;4983213;28;20034;-62
2022/11/19 07:08:05;;;;;;;3.95;2.15;;;;;;;;;;4995962;28;20030;-61
2022/11/19 07:10:32;;;;;;;3.05;2.00;;;;;;;;;;4980014;28;20027;-62
2022/11/19 07:12:58;;;;;;;3.47;2.20;;;;;;;;;;4973533;28;20037;-62
2022/11/19 07:15:25;;;;;;;4.07;2.00;;;;;;;;;;4977584;28;20083;-62
2022/11/19 07:17:51;;;;;;;6.45;2.10;;;;;;;;;;4979668;28;20365;-62
2022/11/19 07:20:17;;;;;;;2.65;2.20;;;;;;;;;;4976773;28;20030;-61
2022/11/19 07:22:43;;;;;;;2.78;2.00;;;;;;;;;;4980615;28;20019;-62
2022/11/19 07:25:13;;;;;;;4.72;1.80;;;;;;;;;;4981512;28;20034;-62
2022/11/19 07:27:41;;;;;;;4.22;1.90;;;;;;;;;;4975522;28;20126;-61
2022/11/19 07:30:07;;;;;;;5.53;1.80;;;;;;;;;;4985133;28;20064;-61
2022/11/19 07:32:34;;;;;;;3.22;1.90;;;;;;;;;;4980985;28;20030;-61
2022/11/19 07:35:00;;;;;;;5.80;2.78;;;;;;;;;;4974758;28;20404;-61
2022/11/19 07:37:26;;;;;;;3.95;2.78;;;;;;;;;;4975456;28;20038;-61
2022/11/19 07:39:52;;;;;;;9.82;5.40;;;;;;;;;;4985849;28;20041;-62
2022/11/19 07:45:08;;;;;;;3.67;2.60;;;;;;;;;;4986006;28;20575;-61
2022/11/19 07:47:34;;;;;;;5.82;3.75;;;;;;;;;;4982963;28;20488;-61
2022/11/19 07:50:01;;;;;;;5.00;3.08;;;;;;;;;;4983226;28;20022;-61
2022/11/19 07:52:27;;;;;;;8.55;4.13;;;;;;;;;;4980560;28;20033;-61
2022/11/19 07:54:53;;;;;;;8.15;3.85;;;;;;;;;;4979200;28;20375;-61
2022/11/19 07:57:19;;;;;;;4.93;3.42;;;;;;;;;;4987939;28;20033;-61
2022/11/19 07:59:45;;;;;;;8.27;3.97;;;;;;;;;;4988272;28;20785;-61
2022/11/19 08:02:12;;;;;;;7.75;4.25;;;;;;;;;;4982426;28;20057;-65
2022/11/19 08:04:38;;;;;;;9.32;5.53;;;;;;;;;;4983587;28;20058;-61
2022/11/19 08:07:04;;;;;;;9.30;5.45;;;;;;;;;;4984408;28;20027;-61
2022/11/19 08:09:30;;;;;;;9.57;5.57;;;;;;;;;;4979294;28;20459;-61
2022/11/19 08:11:56;;;;;;;9.75;5.00;;;;;;;;;;4978940;28;20018;-66
2022/11/19 08:14:22;;;;;;;10.73;5.90;;;;;;;;;;4982677;28;20395;-61
2022/11/19 08:19:33;;;;;;;12.85;5.15;;;;;;;;;;4979571;28;20559;-61
2022/11/19 08:21:59;;;;;;;8.73;5.75;;;;;;;;;;4977049;28;20071;-61
2022/11/19 08:24:25;;;;;;;8.38;5.47;;;;;;;;;;4979944;28;20045;-61
2022/11/19 08:26:51;;;;;;;6.13;4.65;;;;;;;;;;4975733;28;20045;-61
2022/11/19 08:29:20;;;;;;;8.82;4.90;;;;;;;;;;4978515;28;20092;-61
2022/11/19 08:31:47;;;;;;;8.18;4.35;;;;;;;;;;4976541;28;20026;-60
2022/11/19 08:34:14;;;;;;;9.50;4.97;;;;;;;;;;4976686;28;20083;-61
2022/11/19 08:36:40;;;;;;;8.68;5.13;;;;;;;;;;4981185;28;20032;-61
2022/11/19 08:39:06;;;;;;;10.68;6.07;;;;;;;;;;4981170;28;20039;-61
2022/11/19 08:44:17;;;;;;;8.60;4.88;;;;;;;;;;4977279;28;20042;-61
2022/11/19 08:46:43;;;;;;;11.48;5.18;;;;;;;;;;4976334;28;20492;-61
2022/11/19 08:49:10;;;;;;;7.50;4.40;;;;;;;;;;4979716;28;20033;-61
2022/11/19 08:51:37;;;;;;;6.18;4.28;;;;;;;;;;4977985;28;20030;-61
2022/11/19 08:54:03;;;;;;;6.25;4.82;;;;;;;;;;4974728;28;20114;-60
2022/11/19 08:56:29;;;;;;;8.65;5.13;;;;;;;;;;4976287;28;20496;-60
2022/11/19 08:58:56;;;;;;;7.55;4.45;;;;;;;;;;4975141;28;20069;-60
2022/11/19 09:01:22;;;;;;;8.82;4.45;;;;;;;;;;4978035;28;20030;-60
2022/11/19 09:03:48;;;;;;;8.88;4.43;;;;;;;;;;4976757;28;20138;-60
2022/11/19 09:06:15;;;;;;;6.75;4.25;;;;;;;;;;4977272;28;20066;-60
2022/11/19 09:08:41;;;;;;;10.55;4.60;;;;;;;;;;4977358;28;20037;-60
2022/11/19 09:11:08;;;;;;;10.15;4.93;;;;;;;;;;4973398;28;20031;-60
2022/11/19 09:13:34;;;;;;;11.35;5.47;;;;;;;;;;4975355;28;20030;-60
2022/11/19 09:16:01;;;;;;;8.05;5.18;;;;;;;;;;4977726;28;20019;-60
2022/11/19 09:18:27;;;;;;;9.05;5.15;;;;;;;;;;4973024;28;20484;-60
2022/11/19 09:20:54;;;;;;;12.35;4.55;;;;;;;;;;4971628;28;20022;-60
2022/11/19 09:23:20;;;;;;;6.53;4.22;;;;;;;;;;4977713;28;20023;-60
2022/11/19 09:25:57;;;;;;;8.15;3.97;;;;;;;;;;4983116;28;20035;-61
2022/11/19 09:28:23;;;;;;;7.13;3.40;;;;;;;;;;4984992;28;20046;-60
2022/11/19 09:30:59;;;;;;;6.95;4.07;;;;;;;;;;4981389;28;20035;-60
2022/11/19 09:33:25;;;;;;;8.93;3.35;;;;;;;;;;4977807;28;20023;-60
2022/11/19 09:35:51;;;;;;;5.88;3.60;;;;;;;;;;4978069;28;20046;-60
2022/11/19 09:38:18;;;;;;;5.75;3.35;;;;;;;;;;4988653;28;20030;-60
2022/11/19 09:40:45;;;;;;;8.38;3.40;;;;;;;;;;4981207;28;20026;-60
2022/11/19 09:43:31;;;;;;;6.05;3.40;;;;;;;;;;4974877;28;20097;-60
2022/11/19 09:45:58;;;;;;;6.68;3.40;;;;;;;;;;4983118;28;20046;-60
2022/11/19 09:48:29;;;;;;;5.43;3.05;;;;;;;;;;4975218;28;20034;-60
2022/11/19 09:51:01;;;;;;;7.07;3.40;;;;;;;;;;4972999;28;20114;-60
2022/11/19 09:53:30;;;;;;;10.70;3.33;;;;;;;;;;4976378;28;20096;-61
2022/11/19 09:55:58;;;;;;;4.03;3.10;;;;;;;;;;4976636;28;20371;-61
2022/11/19 09:58:24;;;;;;;6.18;3.13;;;;;;;;;;4972804;28;20031;-60
2022/11/19 10:00:50;;;;;;;6.97;3.25;;;;;;;;;;4977992;28;20077;-60
2022/11/19 10:03:19;;;;;;;7.70;3.03;;;;;;;;;;4975314;28;20050;-60
2022/11/19 10:06:04;;;;;;;6.82;2.67;;;;;;;;;;4973623;28;20023;-61
2022/11/19 10:08:56;;;;;;;6.45;3.08;;;;;;;;;;4975067;28;20396;-60
2022/11/19 10:11:38;;;;;;;9.60;3.53;;;;;;;;;;4971360;28;20035;-60
2022/11/19 10:14:14;;;;;;;6.93;3.08;;;;;;;;;;4978865;28;20092;-61
2022/11/19 10:16:59;;;;;;;9.75;3.70;;;;;;;;;;4972369;28;20050;-60
2022/11/19 10:19:25;;;;;;;7.85;3.42;;;;;;;;;;4974772;28;20080;-60
2022/11/19 10:22:10;;;;;;;6.82;4.03;;;;;;;;;;4974080;28;20035;-61
2022/11/19 10:24:55;;;;;;;8.27;3.90;;;;;;;;;;4974816;28;20083;-61
2022/11/19 10:27:34;;;;;;;9.10;3.90;;;;;;;;;;4978568;28;20098;-61
2022/11/19 10:30:03;;;;;;;9.45;3.85;;;;;;;;;;4983219;28;20039;-60
2022/11/19 10:32:37;;;;;;;6.82;3.28;;;;;;;;;;4983024;28;20022;-61
2022/11/19 10:35:07;;;;;;;9.48;3.63;;;;;;;;;;4977041;28;20504;-61
2022/11/19 10:37:38;;;;;;;8.20;3.45;;;;;;;;;;4989560;28;20075;-60
2022/11/19 10:40:07;;;;;;;9.18;3.42;;;;;;;;;;4981245;28;20072;-61
2022/11/19 10:42:36;;;;;;;8.93;3.47;;;;;;;;;;4980650;28;20027;-61
2022/11/19 10:45:17;;;;;;;10.57;3.00;;;;;;;;;;4978565;28;20803;-61
2022/11/19 10:47:47;;;;;;;4.70;2.42;;;;;;;;;;4982634;28;20515;-61
2022/11/19 10:50:23;;;;;;;6.93;2.40;;;;;;;;;;4976548;28;20125;-61
2022/11/19 10:53:01;;;;;;;5.78;2.67;;;;;;;;;;4982987;28;20468;-61
2022/11/19 10:55:50;;;;;;;13.63;2.67;;;;;;;;;;4983163;28;20439;-61
2022/11/19 10:58:19;;;;;;;9.60;2.72;;;;;;;;;;4982079;28;20042;-61
2022/11/19 11:00:45;;;;;;;5.50;2.58;;;;;;;;;;4978663;28;20423;-61
2022/11/19 11:03:18;;;;;;;6.75;2.75;;;;;;;;;;4982672;28;20042;-61
2022/11/19 11:05:56;;;;;;;7.57;2.40;;;;;;;;;;4981913;28;20034;-60
2022/11/19 11:08:22;;;;;;;5.93;2.65;;;;;;;;;;4987017;28;20441;-61
2022/11/19 11:10:49;;;;;;;10.30;4.22;;;;;;;;;;4986776;28;20026;-60
2022/11/19 11:16:04;;;;;;;14.30;5.15;;;;;;;;;;4982959;28;20121;-60
2022/11/19 11:18:31;;;;;;;10.60;5.32;;;;;;;;;;4985335;28;20034;-61
2022/11/19 11:20:58;;;;;;;15.05;7.07;;;;;;;;;;4980912;28;20026;-60
2022/11/19 11:23:25;;;;;;;17.52;9.30;;;;;;;;;;4978119;28;20046;-61
2022/11/19 11:25:59;;;;;;;22.08;10.50;;;;;;;;;;4983047;28;20105;-60
2022/11/19 11:28:26;;;;;;;21.88;9.20;;;;;;;;;;4978798;28;20030;-60
2022/11/19 11:30:52;;;;;;;17.42;7.72;;;;;;;;;;4981238;28;20049;-60
2022/11/19 11:33:25;;;;;;;9.63;4.18;;;;;;;;;;4973652;28;20027;-60
2022/11/19 11:35:52;;;;;;;3.85;2.00;;;;;;;;;;4982945;28;21365;-61
2022/11/19 11:38:22;;;;;;;6.93;2.28;;;;;;;;;;4973582;28;20058;-61
2022/11/19 11:41:00;;;;;;;9.80;1.98;;;;;;;;;;4974169;28;20041;-60
2022/11/19 11:43:27;;;;;;;6.25;1.10;;;;;;;;;;4974544;28;20026;-61
2022/11/19 11:46:03;;;;;;;3.85;1.13;;;;;;;;;;4975855;28;20023;-60
2022/11/19 11:48:34;;;;;;;3.33;0.98;;;;;;;;;;4971595;28;20018;-60
2022/11/19 11:51:00;;;;;;;4.07;1.08;;;;;;;;;;4976012;28;20027;-60
2022/11/19 11:53:30;;;;;;;2.35;0.82;;;;;;;;;;4976231;28;20045;-60
2022/11/19 11:55:57;;;;;;;3.33;0.80;;;;;;;;;;4973327;28;20042;-61
2022/11/19 11:58:23;;;;;;;4.55;0.80;;;;;;;;;;4973914;28;20029;-61
2022/11/19 12:00:52;;;;;;;4.18;1.30;;;;;;;;;;4973816;28;20039;-60
2022/11/19 12:03:19;;;;;;;4.05;1.17;;;;;;;;;;4974713;28;20449;-61
2022/11/19 12:05:48;;;;;;;3.35;1.30;;;;;;;;;;4977910;28;20030;-60
2022/11/19 12:08:37;;;;;;;7.07;1.30;;;;;;;;;;4974852;28;20032;-61
2022/11/19 12:11:09;;;;;;;5.95;1.38;;;;;;;;;;4905209;29;20043;-61
2022/11/19 12:13:44;;;;;;;6.07;1.23;;;;;;;;;;4909382;29;20124;-60
2022/11/19 12:16:10;;;;;;;4.03;1.05;;;;;;;;;;4906689;29;20063;-61
2022/11/19 12:18:36;;;;;;;4.68;0.95;;;;;;;;;;4908347;29;20036;-61
2022/11/19 12:21:09;;;;;;;8.45;0.90;;;;;;;;;;4910213;29;20039;-60
2022/11/19 12:23:51;;;;;;;4.95;1.13;;;;;;;;;;4909460;29;20079;-60
2022/11/19 12:26:29;;;;;;;7.50;2.15;;;;;;;;;;4906608;29;20051;-60
2022/11/19 12:28:58;;;;;;;7.47;1.23;;;;;;;;;;4908294;28;20048;-60
2022/11/19 12:31:27;;;;;;;5.25;1.17;;;;;;;;;;4909170;29;20043;-60
2022/11/19 12:34:08;;;;;;;5.00;1.00;;;;;;;;;;4909912;29;20545;-60
2022/11/19 12:36:55;;;;;;;3.53;1.10;;;;;;;;;;4907945;29;20133;-60
2022/11/19 12:39:25;;;;;;;3.08;0.90;;;;;;;;;;4907565;29;20115;-60
2022/11/19 12:41:54;;;;;;;4.07;1.17;;;;;;;;;;4908499;29;20048;-60
2022/11/19 12:44:23;;;;;;;6.22;1.25;;;;;;;;;;4907666;29;20039;-60
2022/11/19 12:47:01;;;;;;;4.35;1.17;;;;;;;;;;4909251;29;20043;-62
2022/11/19 12:49:27;;;;;;;2.78;0.77;;;;;;;;;;4980324;28;20060;-60
2022/11/19 12:52:01;;;;;;;5.20;1.58;;;;;;;;;;4978862;28;20018;-60
2022/11/19 12:54:36;;;;;;;9.63;1.42;;;;;;;;;;4974434;28;20023;-60
2022/11/19 12:57:08;;;;;;;2.97;1.08;;;;;;;;;;4973388;28;20384;-60
2022/11/19 12:59:53;;;;;;;4.63;1.00;;;;;;;;;;4975020;28;20080;-60
2022/11/19 13:02:28;;;;;;;3.08;0.90;;;;;;;;;;4984000;28;20117;-60
2022/11/19 13:04:56;;;;;;;9.73;3.20;;;;;;;;;;4979499;28;20153;-60
2022/11/19 13:07:35;;;;;;;6.32;1.35;;;;;;;;;;4973050;28;20031;-60
2022/11/19 13:10:05;;;;;;;5.47;1.25;;;;;;;;;;4983564;28;20129;-60
2022/11/19 13:12:58;;;;;;;8.07;1.40;;;;;;;;;;4980443;28;20073;-60
2022/11/19 13:15:28;;;;;;;4.30;1.45;;;;;;;;;;4981335;28;20038;-60
2022/11/19 13:17:55;;;;;;;4.43;1.50;;;;;;;;;;4984125;28;20023;-60
2022/11/19 13:20:36;;;;;;;8.00;1.73;;;;;;;;;;4976303;28;20073;-60
2022/11/19 13:23:04;;;;;;;8.23;1.40;;;;;;;;;;4982700;28;20034;-60
2022/11/19 13:25:39;;;;;;;4.65;2.05;;;;;;;;;;4981096;28;20105;-60
2022/11/19 13:28:12;;;;;;;8.10;2.05;;;;;;;;;;4973842;28;20587;-60
2022/11/19 13:30:41;;;;;;;4.85;1.58;;;;;;;;;;4983268;28;20030;-60
2022/11/19 13:33:10;;;;;;;8.15;1.33;;;;;;;;;;4985134;28;20072;-60
2022/11/19 13:35:47;;;;;;;4.53;1.40;;;;;;;;;;4982870;28;20070;-59
2022/11/19 13:38:32;;;;;;;10.10;2.10;;;;;;;;;;4981014;28;20045;-60
2022/11/19 13:41:10;;;;;;;5.80;1.35;;;;;;;;;;4983466;28;20618;-60
2022/11/19 13:46:24;;;;;;;5.95;1.50;;;;;;;;;;4985171;28;20103;-59
2022/11/19 13:49:02;;;;;;;9.02;1.58;;;;;;;;;;4983871;28;20022;-60
2022/11/19 13:51:28;;;;;;;12.05;2.35;;;;;;;;;;4980951;28;20404;-60
2022/11/19 13:53:55;;;;;;;4.72;1.48;;;;;;;;;;4983787;28;20033;-60
2022/11/19 13:56:22;;;;;;;7.00;1.70;;;;;;;;;;4979284;28;20031;-60
2022/11/19 13:58:52;;;;;;;5.25;1.50;;;;;;;;;;4978828;28;20037;-60
2022/11/19 14:01:21;;;;;;;3.20;1.10;;;;;;;;;;4978322;28;20023;-60
2022/11/19 14:03:47;;;;;;;4.78;1.20;;;;;;;;;;4976844;28;20050;-59
2022/11/19 14:06:13;;;;;;;1.80;0.93;;;;;;;;;;4980329;28;20038;-60
2022/11/19 14:08:58;;;;;;;6.85;2.13;;;;;;;;;;4968000;28;20066;-60
2022/11/19 14:11:27;;;;;;;5.90;1.38;;;;;;;;;;4973811;28;20037;-60
2022/11/19 14:26:18;;;;;;;2.35;1.33;;;;;;;;;;4974698;28;20022;-59
2022/11/19 14:26:40;;;;;;;3.85;1.50;;;;;;;;;;4921246;29;20059;-59
2022/11/19 14:29:15;;;;;;;3.42;1.20;;;;;;;;;;4924406;29;20562;-60
2022/11/19 14:32:04;;;;;;;7.97;1.52;;;;;;;;;;4931457;29;20050;-60
2022/11/19 14:34:31;;;;;;;5.18;1.20;;;;;;;;;;4925671;29;20095;-60
2022/11/19 14:36:59;;;;;;;4.72;1.33;;;;;;;;;;4927776;29;20032;-60
2022/11/19 14:39:27;;;;;;;6.25;1.15;;;;;;;;;;4931898;29;20040;-60
2022/11/19 14:42:12;;;;;;;4.57;1.48;;;;;;;;;;4927289;29;20035;-60
2022/11/19 14:44:38;;;;;;;6.40;1.48;;;;;;;;;;4920156;29;20118;-60
2022/11/19 14:47:22;;;;;;;2.33;1.08;;;;;;;;;;4921972;29;20036;-59
2022/11/19 14:49:52;;;;;;;10.35;1.65;;;;;;;;;;4927095;29;20494;-60
2022/11/19 14:52:20;;;;;;;3.08;1.48;;;;;;;;;;4923494;29;20423;-59
2022/11/19 14:54:51;;;;;;;8.48;2.33;;;;;;;;;;4917830;29;20039;-59
2022/11/19 14:57:24;;;;;;;6.25;1.40;;;;;;;;;;4891044;29;20056;-59
2022/11/19 14:59:52;;;;;;;5.25;1.85;;;;;;;;;;4889759;29;20059;-59
2022/11/19 15:02:23;;;;;;;7.28;2.13;;;;;;;;;;4895176;28;20072;-59
2022/11/19 15:04:55;;;;;;;6.35;1.77;;;;;;;;;;4973821;28;20050;-59
2022/11/19 15:07:32;;;;;;;9.55;2.13;;;;;;;;;;4980053;28;20022;-59
2022/11/19 15:10:03;;;;;;;7.93;2.30;;;;;;;;;;4980431;28;20030;-59
2022/11/19 15:12:45;;;;;;;3.90;1.65;;;;;;;;;;4985469;28;20041;-59
2022/11/19 15:15:23;;;;;;;4.83;1.40;;;;;;;;;;4986515;28;20030;-59
2022/11/19 15:17:52;;;;;;;6.03;2.72;;;;;;;;;;4985700;28;20408;-60
2022/11/19 15:20:26;;;;;;;10.50;4.85;;;;;;;;;;4985050;28;20044;-60
2022/11/19 15:22:57;;;;;;;12.77;6.60;;;;;;;;;;4981448;28;20054;-60
2022/11/19 15:25:44;;;;;;;12.55;5.47;;;;;;;;;;4983976;28;20112;-59
2022/11/19 15:28:10;;;;;;;8.77;2.58;;;;;;;;;;4966298;28;20035;-59